Time;durP1;ratioP1;P1;durP2;ratioP2;P2;SDS_P1;SDS_P2;PMS_P1;PMS_P2;Temp;Humidity;BMP_temperature;BMP_pressure;BME280_temperature;BME280_humidity;BME280_pressure;Samples;Min_cycle;Max_cycle;Signal;HPM_P1;HPM_P2
2021/01/22 00:01:59;;;;;;;5.32;1.20;;;5.70;99.90;;;;;;5101576;28;20080;-94
2021/01/22 00:04:29;;;;;;;3.83;1.25;;;5.60;99.90;;;;;;5085225;28;20008;-92
2021/01/22 00:06:55;;;;;;;8.35;1.50;;;5.60;99.90;;;;;;5098679;28;20123;-92
2021/01/22 00:09:21;;;;;;;7.18;1.52;;;5.60;99.90;;;;;;5082455;28;20024;-89
2021/01/22 00:11:48;;;;;;;2.42;0.90;;;5.40;99.90;;;;;;5080127;28;20025;-90
2021/01/22 00:14:13;;;;;;;3.78;0.90;;;5.40;99.90;;;;;;5079307;28;20081;-90
2021/01/22 00:16:40;;;;;;;4.38;1.00;;;5.40;99.90;;;;;;5078534;28;20123;-90
2021/01/22 00:19:06;;;;;;;10.40;1.70;;;5.50;99.90;;;;;;5060180;28;20032;-89
2021/01/22 00:21:37;;;;;;;4.03;0.90;;;5.60;99.90;;;;;;5077182;28;20028;-90
2021/01/22 00:24:04;;;;;;;6.90;1.17;;;5.50;99.90;;;;;;5076453;28;20035;-90
2021/01/22 00:26:30;;;;;;;5.80;1.40;;;5.40;99.90;;;;;;5076629;28;20464;-89
2021/01/22 00:28:55;;;;;;;11.32;1.33;;;5.40;99.90;;;;;;5076880;28;20062;-91
2021/01/22 00:31:22;;;;;;;4.60;1.20;;;5.50;99.90;;;;;;5060001;28;20028;-89
2021/01/22 00:33:48;;;;;;;6.65;1.60;;;5.40;99.90;;;;;;5059629;28;20043;-90
2021/01/22 00:36:14;;;;;;;3.28;0.90;;;5.40;99.90;;;;;;5076158;28;20048;-89
2021/01/22 00:38:42;;;;;;;8.52;1.40;;;5.50;99.90;;;;;;5076388;28;20020;-89
2021/01/22 00:41:08;;;;;;;6.93;1.50;;;5.60;99.90;;;;;;5059186;28;20039;-90
2021/01/22 00:43:34;;;;;;;4.75;1.58;;;5.60;99.90;;;;;;5076278;28;20462;-90
2021/01/22 00:45:59;;;;;;;2.90;1.25;;;5.50;99.90;;;;;;5059760;28;20035;-90
2021/01/22 00:48:25;;;;;;;6.30;1.40;;;5.50;99.90;;;;;;5076608;28;20032;-89
2021/01/22 00:50:51;;;;;;;7.43;1.52;;;5.60;99.90;;;;;;5076410;28;20031;-89
2021/01/22 00:53:17;;;;;;;10.63;1.40;;;5.60;99.90;;;;;;5076791;28;20085;-89
2021/01/22 00:55:42;;;;;;;4.90;1.45;;;5.70;99.90;;;;;;5077808;28;20115;-89
2021/01/22 00:58:08;;;;;;;6.22;1.45;;;5.80;99.90;;;;;;5056089;28;20058;-89
2021/01/22 01:00:34;;;;;;;8.15;1.20;;;5.80;99.90;;;;;;5084281;28;20020;-89
2021/01/22 01:02:59;;;;;;;6.72;1.20;;;5.70;99.90;;;;;;5075645;28;20069;-91
2021/01/22 01:05:28;;;;;;;5.78;1.90;;;5.70;99.90;;;;;;5076380;28;20054;-89
2021/01/22 01:07:54;;;;;;;6.22;1.50;;;5.70;99.90;;;;;;5076088;28;20032;-88
2021/01/22 01:10:20;;;;;;;5.55;1.30;;;5.70;99.90;;;;;;5075418;28;20800;-90
2021/01/22 01:12:45;;;;;;;4.25;1.27;;;5.70;99.90;;;;;;5075656;28;20024;-89
2021/01/22 01:15:11;;;;;;;7.85;1.42;;;5.80;99.90;;;;;;5075443;28;20031;-89
2021/01/22 01:17:37;;;;;;;10.27;1.50;;;5.70;99.90;;;;;;5058843;28;20029;-89
2021/01/22 01:20:04;;;;;;;7.53;1.27;;;5.70;99.90;;;;;;5059174;28;20028;-90
2021/01/22 01:22:30;;;;;;;5.32;1.23;;;5.70;99.90;;;;;;5076467;28;20072;-89
2021/01/22 01:24:55;;;;;;;6.35;1.38;;;5.60;99.90;;;;;;5059271;28;20032;-89
2021/01/22 01:27:21;;;;;;;6.28;1.20;;;5.50;99.90;;;;;;5075671;28;20350;-89
2021/01/22 01:29:47;;;;;;;7.43;1.20;;;5.50;99.90;;;;;;5075439;28;20458;-89
2021/01/22 01:32:15;;;;;;;4.43;1.35;;;5.60;99.90;;;;;;5075464;28;20105;-89
2021/01/22 01:34:40;;;;;;;6.97;1.50;;;5.40;99.90;;;;;;5059105;28;20097;-90
2021/01/22 01:37:06;;;;;;;7.95;1.63;;;5.60;99.90;;;;;;5076547;28;20047;-90
2021/01/22 01:39:32;;;;;;;14.00;1.50;;;5.50;99.90;;;;;;5059868;28;20481;-89
2021/01/22 01:41:57;;;;;;;15.55;1.80;;;5.60;99.90;;;;;;5043164;28;20410;-89
2021/01/22 01:44:23;;;;;;;8.15;1.80;;;5.60;99.90;;;;;;5075373;28;20051;-89
2021/01/22 01:46:49;;;;;;;7.22;1.83;;;5.60;99.90;;;;;;5075333;28;20471;-89
2021/01/22 01:49:14;;;;;;;16.35;2.10;;;5.60;99.90;;;;;;5058704;28;20028;-89
2021/01/22 01:51:40;;;;;;;7.85;1.42;;;5.60;99.90;;;;;;5059295;28;20028;-90
2021/01/22 01:54:06;;;;;;;4.30;1.40;;;5.60;99.90;;;;;;5075818;28;20539;-89
2021/01/22 01:56:32;;;;;;;9.40;1.77;;;5.70;99.90;;;;;;5059469;28;20032;-90
2021/01/22 01:58:58;;;;;;;12.73;2.35;;;5.80;99.90;;;;;;5075854;28;20532;-88
2021/01/22 02:01:26;;;;;;;7.32;2.20;;;5.70;99.90;;;;;;5058715;28;20029;-89
2021/01/22 02:03:52;;;;;;;8.75;1.70;;;5.70;99.90;;;;;;5059954;28;20040;-90
2021/01/22 02:06:18;;;;;;;9.80;2.22;;;5.80;99.90;;;;;;5059198;28;20119;-88
2021/01/22 02:08:44;;;;;;;16.92;3.97;;;5.70;99.90;;;;;;5075030;28;20063;-88
2021/01/22 02:11:12;;;;;;;13.10;1.95;;;5.80;99.90;;;;;;5058619;28;20043;-88
2021/01/22 02:13:39;;;;;;;14.25;2.75;;;5.80;99.90;;;;;;5074739;28;20135;-90
2021/01/22 02:16:05;;;;;;;10.60;2.30;;;5.90;99.90;;;;;;5075360;28;20040;-90
2021/01/22 02:18:32;;;;;;;13.15;2.80;;;5.90;99.90;;;;;;5075280;28;20065;-88
2021/01/22 02:21:10;;;;;;;13.75;2.58;;;5.90;99.90;;;;;;5083921;28;20028;-88
2021/01/22 02:23:40;;;;;;;21.80;2.67;;;6.00;99.90;;;;;;5088784;28;20031;-88
2021/01/22 02:26:29;;;;;;;16.67;4.30;;;6.10;99.90;;;;;;5063672;28;20024;-88
2021/01/22 02:29:06;;;;;;;14.98;2.65;;;6.10;99.90;;;;;;5092300;28;20028;-89
2021/01/22 02:31:38;;;;;;;13.98;3.42;;;6.10;99.90;;;;;;5088184;28;20047;-88
2021/01/22 02:34:08;;;;;;;13.60;3.38;;;6.10;99.90;;;;;;5089213;28;20083;-88
2021/01/22 02:36:37;;;;;;;26.85;3.45;;;6.20;99.90;;;;;;5096885;28;20056;-89
2021/01/22 02:39:05;;;;;;;19.00;3.25;;;6.20;99.90;;;;;;5078395;28;20031;-89
2021/01/22 02:41:34;;;;;;;21.20;3.28;;;6.20;99.90;;;;;;5061616;28;20481;-88
2021/01/22 02:44:03;;;;;;;19.85;3.40;;;6.20;99.90;;;;;;5096247;28;20099;-88
2021/01/22 02:46:29;;;;;;;14.38;2.85;;;6.20;99.90;;;;;;5078322;28;20028;-88
2021/01/22 02:48:56;;;;;;;14.60;3.50;;;6.10;99.90;;;;;;5049143;28;20044;-88
2021/01/22 02:51:22;;;;;;;13.73;3.20;;;6.20;99.90;;;;;;5068059;28;20035;-88
2021/01/22 02:53:48;;;;;;;17.52;3.58;;;6.20;99.90;;;;;;5082105;28;20028;-89
2021/01/22 02:56:35;;;;;;;16.25;3.08;;;6.20;99.90;;;;;;5081100;28;20351;-88
2021/01/22 02:59:20;;;;;;;14.52;3.28;;;6.30;99.90;;;;;;5078588;28;20024;-88
2021/01/22 03:02:00;;;;;;;13.82;3.10;;;6.30;99.90;;;;;;5078070;28;20069;-88
2021/01/22 03:04:27;;;;;;;13.32;3.17;;;6.20;99.90;;;;;;5077681;28;20032;-88
2021/01/22 03:06:56;;;;;;;9.52;3.00;;;6.20;99.90;;;;;;5096314;28;20056;-88
2021/01/22 03:09:27;;;;;;;10.30;3.05;;;6.20;99.90;;;;;;5077812;28;20073;-88
2021/01/22 03:11:54;;;;;;;18.98;3.22;;;6.20;99.90;;;;;;5061887;28;20039;-88
2021/01/22 03:14:21;;;;;;;19.13;3.20;;;6.20;99.90;;;;;;5078251;28;20066;-88
2021/01/22 03:16:49;;;;;;;17.40;2.67;;;6.20;99.90;;;;;;5078097;28;20385;-88
2021/01/22 03:19:15;;;;;;;13.98;2.92;;;6.20;99.90;;;;;;5078077;28;20020;-88
2021/01/22 03:21:44;;;;;;;11.93;3.10;;;6.20;99.90;;;;;;5077758;28;20496;-87
2021/01/22 03:24:10;;;;;;;14.18;3.08;;;6.20;99.90;;;;;;5045132;28;20044;-88
2021/01/22 03:26:36;;;;;;;10.65;2.83;;;6.20;99.90;;;;;;5077952;28;20165;-87
2021/01/22 03:29:02;;;;;;;13.95;3.50;;;6.20;99.90;;;;;;5077534;28;20053;-88
2021/01/22 03:31:27;;;;;;;18.23;3.13;;;6.20;99.90;;;;;;5077103;28;20059;-88
2021/01/22 03:33:53;;;;;;;13.88;2.85;;;6.20;99.90;;;;;;5060847;28;20493;-87
2021/01/22 03:36:19;;;;;;;15.45;3.05;;;6.20;99.90;;;;;;5060351;28;20048;-88
2021/01/22 03:38:45;;;;;;;18.20;3.13;;;6.20;99.90;;;;;;5061119;28;20032;-89
2021/01/22 03:41:10;;;;;;;17.63;3.35;;;6.10;99.90;;;;;;5044294;28;20066;-89
2021/01/22 03:43:36;;;;;;;20.50;3.13;;;6.10;99.90;;;;;;5060363;28;20465;-90
2021/01/22 03:46:02;;;;;;;17.38;4.25;;;6.10;99.90;;;;;;5060051;28;20043;-89
2021/01/22 03:48:28;;;;;;;14.30;3.30;;;6.10;99.90;;;;;;5077228;28;20032;-89
2021/01/22 03:50:53;;;;;;;14.20;3.60;;;6.20;99.90;;;;;;5060558;28;20024;-88
2021/01/22 03:53:19;;;;;;;14.90;4.13;;;6.20;99.90;;;;;;5060108;28;20046;-89
2021/01/22 03:55:45;;;;;;;21.10;3.50;;;6.20;99.90;;;;;;5076755;28;20085;-89
2021/01/22 03:58:10;;;;;;;18.00;3.80;;;6.10;99.90;;;;;;5060167;28;20024;-89
2021/01/22 04:00:36;;;;;;;16.33;4.05;;;6.10;99.90;;;;;;5043619;28;20031;-89
2021/01/22 04:03:03;;;;;;;19.05;3.58;;;6.00;99.90;;;;;;5077536;28;20062;-89
2021/01/22 04:05:29;;;;;;;17.90;3.70;;;6.00;99.90;;;;;;5060164;28;20043;-89
2021/01/22 04:07:57;;;;;;;18.73;3.45;;;6.00;99.90;;;;;;5059996;28;20122;-89
2021/01/22 04:10:22;;;;;;;17.02;4.80;;;6.10;99.90;;;;;;5076367;28;20039;-89
2021/01/22 04:12:48;;;;;;;13.15;3.35;;;6.00;99.90;;;;;;5060057;28;20040;-89
2021/01/22 04:15:14;;;;;;;20.38;3.63;;;6.00;99.90;;;;;;5094457;28;20032;-88
2021/01/22 04:17:40;;;;;;;17.95;3.88;;;6.00;99.90;;;;;;5076390;28;20031;-89
2021/01/22 04:20:06;;;;;;;19.45;4.25;;;6.00;99.90;;;;;;5094741;28;20180;-89
2021/01/22 04:22:32;;;;;;;19.00;3.38;;;6.00;99.90;;;;;;5094797;28;20031;-88
2021/01/22 04:24:58;;;;;;;23.98;4.45;;;6.10;99.90;;;;;;5076535;28;20032;-87
2021/01/22 04:27:24;;;;;;;19.00;3.55;;;6.00;99.90;;;;;;5076185;28;20381;-87
2021/01/22 04:29:49;;;;;;;24.98;4.82;;;6.00;99.90;;;;;;5094619;28;20491;-88
2021/01/22 04:32:15;;;;;;;25.60;4.68;;;6.00;99.90;;;;;;5076445;28;20028;-88
2021/01/22 04:34:41;;;;;;;22.50;4.32;;;6.10;99.90;;;;;;5094159;28;20078;-88
2021/01/22 04:37:06;;;;;;;20.05;4.25;;;6.10;99.90;;;;;;5065041;28;20045;-88
2021/01/22 04:39:34;;;;;;;17.38;4.35;;;6.10;99.90;;;;;;5057500;28;20032;-89
2021/01/22 04:42:01;;;;;;;18.85;4.78;;;6.10;99.90;;;;;;5041979;28;20029;-88
2021/01/22 04:44:27;;;;;;;24.63;4.50;;;6.10;99.90;;;;;;5089784;28;20032;-89
2021/01/22 04:46:54;;;;;;;16.00;4.30;;;6.10;99.90;;;;;;5023708;28;20035;-89
2021/01/22 04:49:21;;;;;;;21.27;4.00;;;6.10;99.90;;;;;;5039809;28;20029;-89
2021/01/22 04:51:50;;;;;;;23.90;4.07;;;6.00;99.90;;;;;;5055544;28;20031;-89
2021/01/22 04:54:27;;;;;;;24.17;4.30;;;6.00;99.90;;;;;;5055788;28;20028;-88
2021/01/22 04:56:56;;;;;;;15.60;3.72;;;6.00;99.90;;;;;;5055645;28;20025;-88
2021/01/22 04:59:29;;;;;;;15.50;4.22;;;6.00;99.90;;;;;;5055326;28;20060;-87
2021/01/22 05:01:55;;;;;;;20.15;4.15;;;6.10;99.90;;;;;;5056123;28;20028;-88
2021/01/22 05:04:23;;;;;;;17.38;4.28;;;6.10;99.90;;;;;;5055661;28;20031;-88
2021/01/22 05:06:49;;;;;;;20.60;4.25;;;6.10;99.90;;;;;;5055481;28;20045;-88
2021/01/22 05:09:16;;;;;;;23.55;4.45;;;6.10;99.90;;;;;;5055868;28;20029;-88
2021/01/22 05:11:42;;;;;;;14.50;3.47;;;6.00;99.90;;;;;;5055429;28;20029;-88
2021/01/22 05:14:08;;;;;;;17.85;4.20;;;6.10;99.90;;;;;;5055613;28;20098;-89
2021/01/22 05:16:34;;;;;;;19.48;4.90;;;6.00;99.90;;;;;;5073182;28;20025;-89
2021/01/22 05:19:19;;;;;;;20.90;3.47;;;6.00;99.90;;;;;;5039135;28;20127;-89
2021/01/22 05:21:49;;;;;;;17.55;3.53;;;6.00;99.90;;;;;;5076064;28;20050;-88
2021/01/22 05:24:20;;;;;;;26.52;4.10;;;6.00;99.90;;;;;;5093239;28;20032;-88
2021/01/22 05:26:46;;;;;;;21.27;4.70;;;6.00;99.90;;;;;;5097156;28;20008;-88
2021/01/22 05:29:16;;;;;;;21.98;4.28;;;6.00;99.90;;;;;;5080093;28;20104;-89
2021/01/22 05:31:41;;;;;;;21.83;4.05;;;5.90;99.90;;;;;;5028865;28;20099;-89
2021/01/22 05:34:07;;;;;;;27.25;4.78;;;6.00;99.90;;;;;;5040629;28;20470;-89
2021/01/22 05:36:33;;;;;;;24.25;3.92;;;6.00;99.90;;;;;;5039732;28;20055;-90
2021/01/22 05:39:00;;;;;;;17.33;3.60;;;6.00;99.90;;;;;;5040407;28;20036;-89
2021/01/22 05:41:30;;;;;;;23.92;4.30;;;6.00;99.90;;;;;;5039227;28;20029;-88
2021/01/22 05:43:56;;;;;;;22.70;4.72;;;6.00;99.90;;;;;;5055149;28;20115;-89
2021/01/22 05:46:24;;;;;;;22.00;4.75;;;5.90;99.90;;;;;;5055711;28;20024;-89
2021/01/22 05:49:25;;;;;;;16.52;4.70;;;5.90;99.90;;;;;;5055344;28;20457;-89
2021/01/22 05:51:51;;;;;;;28.45;4.32;;;5.90;99.90;;;;;;4976075;28;20030;-90
2021/01/22 05:54:37;;;;;;;25.67;3.90;;;5.90;99.90;;;;;;5022836;28;20055;-89
2021/01/22 05:57:05;;;;;;;20.38;3.95;;;5.90;99.90;;;;;;5077207;28;20070;-90
2021/01/22 05:59:31;;;;;;;14.02;4.00;;;5.90;99.90;;;;;;5060740;28;20094;-90
2021/01/22 06:01:57;;;;;;;17.80;3.97;;;5.80;99.90;;;;;;5059708;28;20474;-89
2021/01/22 06:04:23;;;;;;;24.58;4.22;;;5.80;99.90;;;;;;5042894;28;20071;-89
2021/01/22 06:06:51;;;;;;;23.00;4.68;;;5.80;99.90;;;;;;5064239;28;20139;-89
2021/01/22 06:09:34;;;;;;;23.83;4.93;;;5.80;99.90;;;;;;5047368;28;20033;-89
2021/01/22 06:12:01;;;;;;;23.58;5.03;;;5.80;99.90;;;;;;5042365;28;20024;-89
2021/01/22 06:14:34;;;;;;;24.05;4.38;;;5.80;99.90;;;;;;5059200;28;20535;-89
2021/01/22 06:17:04;;;;;;;22.85;4.50;;;5.80;99.90;;;;;;5059332;28;20175;-89
2021/01/22 06:19:37;;;;;;;19.35;4.53;;;5.80;99.90;;;;;;5059468;28;20420;-89
2021/01/22 06:22:14;;;;;;;24.98;4.15;;;5.80;99.90;;;;;;5059864;28;20025;-89
2021/01/22 06:24:39;;;;;;;28.33;4.32;;;5.80;99.90;;;;;;5058998;28;20029;-89
2021/01/22 06:27:06;;;;;;;24.98;3.92;;;5.80;99.90;;;;;;5042585;28;20033;-89
2021/01/22 06:29:33;;;;;;;22.35;4.47;;;5.80;99.90;;;;;;5077575;28;20362;-89
2021/01/22 06:32:02;;;;;;;22.23;4.57;;;5.80;99.90;;;;;;5059046;28;20025;-89
2021/01/22 06:34:33;;;;;;;30.70;4.70;;;5.80;99.90;;;;;;5059419;28;20066;-88
2021/01/22 06:36:59;;;;;;;24.13;4.57;;;5.90;99.90;;;;;;5050703;28;20295;-89
2021/01/22 06:39:25;;;;;;;28.50;6.28;;;5.90;99.90;;;;;;5066807;28;20040;-89
2021/01/22 06:41:51;;;;;;;30.05;5.53;;;5.90;99.90;;;;;;5080537;28;20466;-89
2021/01/22 06:44:19;;;;;;;25.02;5.53;;;5.90;99.90;;;;;;5029170;28;20032;-89
2021/01/22 06:46:47;;;;;;;22.17;4.18;;;5.90;99.90;;;;;;5043226;28;20032;-88
2021/01/22 06:49:14;;;;;;;20.05;4.28;;;5.90;99.90;;;;;;5044057;28;20041;-88
2021/01/22 06:51:39;;;;;;;31.42;6.07;;;5.90;99.90;;;;;;5061498;28;20077;-87
2021/01/22 06:54:29;;;;;;;35.83;5.35;;;6.00;99.90;;;;;;5046719;28;20108;-87
2021/01/22 06:56:59;;;;;;;20.52;4.30;;;5.90;99.90;;;;;;5080801;28;20029;-89
2021/01/22 06:59:28;;;;;;;25.17;4.93;;;6.00;99.90;;;;;;5062980;28;20036;-89
2021/01/22 07:01:54;;;;;;;21.60;4.28;;;6.00;99.90;;;;;;5067139;28;20030;-90
2021/01/22 07:04:32;;;;;;;19.23;4.28;;;5.90;99.90;;;;;;5039186;28;20037;-86
2021/01/22 07:07:05;;;;;;;21.17;4.07;;;6.00;99.90;;;;;;5073579;28;20021;-87
2021/01/22 07:09:43;;;;;;;20.15;4.38;;;6.00;99.90;;;;;;5075019;28;20032;-85
2021/01/22 07:12:09;;;;;;;19.20;4.28;;;6.00;99.90;;;;;;5076424;28;20028;-86
2021/01/22 07:14:43;;;;;;;22.98;4.45;;;6.00;99.90;;;;;;5073728;28;20037;-87
2021/01/22 07:17:30;;;;;;;19.17;4.90;;;5.90;99.90;;;;;;5072773;28;20024;-88
2021/01/22 07:20:05;;;;;;;22.80;4.18;;;5.90;99.90;;;;;;5082888;28;20041;-89
2021/01/22 07:22:31;;;;;;;19.48;4.05;;;6.00;99.90;;;;;;5082180;28;20016;-87
2021/01/22 07:24:59;;;;;;;23.88;4.40;;;6.00;99.90;;;;;;5093110;28;20036;-88
2021/01/22 07:27:45;;;;;;;21.05;4.15;;;6.00;99.90;;;;;;5088243;28;20024;-88
2021/01/22 07:30:12;;;;;;;20.85;4.38;;;6.00;99.90;;;;;;5075233;28;20032;-82
2021/01/22 07:32:39;;;;;;;20.85;4.28;;;5.90;99.90;;;;;;5097408;28;20029;-89
2021/01/22 07:35:07;;;;;;;21.23;4.05;;;6.00;99.90;;;;;;5065523;28;20120;-89
2021/01/22 07:37:38;;;;;;;20.05;3.90;;;6.00;99.90;;;;;;5081617;28;20110;-87
2021/01/22 07:40:12;;;;;;;26.48;4.88;;;6.00;99.90;;;;;;5082049;28;20069;-89
2021/01/22 07:42:39;;;;;;;22.50;4.03;;;6.00;99.90;;;;;;5065496;28;20009;-89
2021/01/22 07:45:15;;;;;;;16.67;3.70;;;6.00;99.90;;;;;;5081751;28;20088;-89
2021/01/22 07:47:44;;;;;;;19.25;4.85;;;5.90;99.90;;;;;;5068654;28;20032;-89
2021/01/22 07:50:16;;;;;;;18.55;3.60;;;5.90;99.90;;;;;;5045183;28;20033;-88
2021/01/22 07:52:47;;;;;;;21.65;3.20;;;6.00;99.90;;;;;;5068252;28;20033;-90
2021/01/22 07:55:14;;;;;;;15.98;3.75;;;5.90;99.90;;;;;;5070766;28;20032;-89
2021/01/22 07:57:41;;;;;;;19.85;4.15;;;5.90;99.90;;;;;;5061456;28;20021;-89
2021/01/22 08:00:11;;;;;;;11.88;3.67;;;5.90;99.90;;;;;;5060769;28;20029;-88
2021/01/22 08:02:37;;;;;;;13.20;3.75;;;5.90;99.90;;;;;;5058991;28;20474;-88
2021/01/22 08:05:07;;;;;;;20.38;4.43;;;5.90;99.90;;;;;;5026195;28;20032;-89
2021/01/22 08:07:38;;;;;;;14.70;3.65;;;5.90;99.90;;;;;;5043896;28;20029;-88
2021/01/22 08:10:10;;;;;;;16.00;4.13;;;5.90;99.90;;;;;;5057323;28;20028;-89
2021/01/22 08:12:36;;;;;;;25.58;4.32;;;5.80;99.90;;;;;;5076112;28;20025;-90
2021/01/22 08:15:20;;;;;;;22.23;4.28;;;5.80;99.90;;;;;;5057596;28;20037;-88
2021/01/22 08:17:47;;;;;;;14.90;3.72;;;5.90;99.90;;;;;;5068099;28;20029;-89
2021/01/22 08:20:14;;;;;;;24.25;5.18;;;5.90;99.90;;;;;;5061136;28;20082;-87
2021/01/22 08:22:42;;;;;;;23.02;4.18;;;5.90;99.90;;;;;;5067187;28;20024;-88
2021/01/22 08:25:09;;;;;;;23.70;5.30;;;6.00;99.90;;;;;;5064967;28;20471;-89
2021/01/22 08:27:35;;;;;;;20.98;4.25;;;6.00;99.90;;;;;;5040156;28;20029;-88
2021/01/22 08:30:05;;;;;;;24.23;5.70;;;5.90;99.90;;;;;;5024594;28;20111;-89
2021/01/22 08:32:32;;;;;;;26.05;4.13;;;6.00;99.90;;;;;;5058983;28;20021;-90
2021/01/22 08:34:58;;;;;;;22.05;4.28;;;5.90;99.90;;;;;;5042143;28;20037;-91
2021/01/22 08:37:24;;;;;;;18.90;4.18;;;6.00;99.90;;;;;;5059090;28;20040;-88
2021/01/22 08:39:58;;;;;;;21.70;4.45;;;6.00;99.90;;;;;;5056250;28;20037;-88
2021/01/22 08:42:25;;;;;;;22.15;4.68;;;6.00;99.90;;;;;;5074749;28;20112;-88
2021/01/22 08:44:58;;;;;;;20.95;3.90;;;6.00;99.90;;;;;;5056449;28;20029;-90
2021/01/22 08:47:25;;;;;;;21.95;3.88;;;6.00;99.90;;;;;;5056970;28;20062;-87
2021/01/22 08:50:04;;;;;;;18.65;3.85;;;6.10;99.90;;;;;;5057935;28;20032;-89
2021/01/22 08:52:30;;;;;;;23.80;4.72;;;6.20;99.90;;;;;;5040060;28;20047;-90
2021/01/22 08:54:59;;;;;;;22.70;4.57;;;6.40;99.90;;;;;;5074316;28;20029;-92
2021/01/22 08:57:29;;;;;;;23.33;4.88;;;6.50;99.90;;;;;;5056185;28;20031;-89
2021/01/22 08:59:57;;;;;;;29.80;6.10;;;6.60;99.90;;;;;;5056177;28;20056;-89
2021/01/22 09:02:42;;;;;;;31.08;4.07;;;6.80;99.90;;;;;;5039739;28;20033;-89
2021/01/22 09:05:18;;;;;;;27.75;4.43;;;7.20;99.90;;;;;;5058041;28;20047;-89
2021/01/22 09:07:45;;;;;;;17.95;4.38;;;7.40;99.90;;;;;;5056112;28;20104;-89
2021/01/22 09:10:28;;;;;;;22.38;5.07;;;7.20;99.90;;;;;;5040052;28;20120;-89
2021/01/22 09:13:08;;;;;;;21.00;4.18;;;6.90;99.90;;;;;;5064439;28;20385;-88
2021/01/22 09:15:36;;;;;;;15.88;4.13;;;6.80;99.90;;;;;;5061065;28;20028;-89
2021/01/22 09:18:02;;;;;;;17.38;4.63;;;6.70;99.90;;;;;;5060243;28;20028;-90
2021/01/22 09:20:29;;;;;;;27.35;4.95;;;6.70;99.90;;;;;;5060077;28;20036;-89
2021/01/22 09:23:02;;;;;;;23.73;4.78;;;6.50;99.90;;;;;;5058084;28;20043;-89
2021/01/22 09:25:28;;;;;;;26.50;5.68;;;6.60;99.90;;;;;;5062706;28;20553;-89
2021/01/22 09:27:54;;;;;;;19.73;4.10;;;6.60;99.90;;;;;;5049150;28;20036;-89
2021/01/22 09:30:22;;;;;;;18.70;4.43;;;6.60;99.90;;;;;;5057665;28;20024;-89
2021/01/22 09:32:55;;;;;;;17.73;3.58;;;6.60;99.90;;;;;;5074824;28;20024;-89
2021/01/22 09:35:24;;;;;;;18.50;3.92;;;6.60;99.90;;;;;;5076389;28;20076;-89
2021/01/22 09:37:50;;;;;;;15.40;4.10;;;6.60;99.90;;;;;;5056138;28;20052;-89
2021/01/22 09:40:17;;;;;;;26.98;3.90;;;6.70;99.90;;;;;;5039274;28;20025;-89
2021/01/22 09:42:53;;;;;;;18.15;3.55;;;6.70;99.90;;;;;;5055988;28;20021;-88
2021/01/22 09:45:19;;;;;;;19.27;3.90;;;6.80;99.90;;;;;;5056010;28;20471;-90
2021/01/22 09:47:48;;;;;;;23.17;4.78;;;6.80;99.90;;;;;;5056976;28;20093;-88
2021/01/22 09:50:22;;;;;;;21.17;4.85;;;6.80;99.90;;;;;;5075734;28;20047;-86
2021/01/22 09:52:48;;;;;;;31.40;5.13;;;6.70;99.90;;;;;;5057355;28;20032;-89
2021/01/22 09:55:18;;;;;;;14.63;3.85;;;6.70;99.90;;;;;;5039693;28;20037;-88
2021/01/22 09:57:44;;;;;;;15.90;3.88;;;6.70;99.90;;;;;;5039600;28;20029;-88
2021/01/22 10:00:14;;;;;;;12.00;3.60;;;6.80;99.90;;;;;;5074043;28;20024;-88
2021/01/22 10:02:40;;;;;;;18.63;3.67;;;6.80;99.90;;;;;;5025169;28;20033;-88
2021/01/22 10:05:06;;;;;;;39.25;6.07;;;6.80;99.90;;;;;;5038976;28;20471;-91
2021/01/22 10:07:51;;;;;;;21.52;4.15;;;6.80;99.90;;;;;;5023100;28;20504;-88
2021/01/22 10:10:16;;;;;;;;;;;6.80;99.90;;;;;;5074003;28;20047;-87
2021/01/22 10:12:42;;;;;;;21.85;4.65;;;6.90;99.90;;;;;;5055793;28;20366;-89
2021/01/22 10:15:11;;;;;;;21.27;5.05;;;6.90;99.90;;;;;;5054903;28;20033;-91
2021/01/22 10:17:41;;;;;;;20.45;4.30;;;6.90;99.90;;;;;;5043000;28;20136;-89
2021/01/22 10:20:08;;;;;;;21.90;4.28;;;6.90;99.90;;;;;;5038920;28;20025;-91
2021/01/22 10:22:33;;;;;;;20.83;3.90;;;6.90;99.90;;;;;;5012348;28;20048;-88
2021/01/22 10:25:00;;;;;;;25.30;5.18;;;6.90;99.90;;;;;;5045325;28;20461;-89
2021/01/22 10:27:26;;;;;;;22.65;3.63;;;6.80;99.90;;;;;;5038560;28;20025;-89
2021/01/22 10:29:53;;;;;;;23.27;4.63;;;6.90;99.90;;;;;;5037822;28;20025;-88
2021/01/22 10:32:18;;;;;;;14.18;4.30;;;6.90;99.90;;;;;;5037990;28;20028;-88
2021/01/22 10:34:44;;;;;;;28.70;4.88;;;6.90;99.90;;;;;;5036595;28;20029;-89
2021/01/22 10:37:10;;;;;;;18.92;4.35;;;6.90;99.90;;;;;;5035937;28;20371;-90
2021/01/22 10:39:36;;;;;;;19.35;4.40;;;6.90;99.90;;;;;;5036668;28;20528;-89
2021/01/22 10:42:01;;;;;;;23.15;4.22;;;6.80;99.90;;;;;;5055753;28;20029;-89
2021/01/22 10:44:27;;;;;;;13.60;3.95;;;6.80;99.90;;;;;;5040561;28;20083;-90
2021/01/22 10:46:53;;;;;;;25.63;4.82;;;6.90;99.90;;;;;;5040449;28;20059;-88
2021/01/22 10:49:19;;;;;;;18.50;3.70;;;6.90;99.90;;;;;;5025209;28;20386;-88
2021/01/22 10:51:45;;;;;;;25.80;3.80;;;6.90;99.90;;;;;;5061923;28;20033;-87
2021/01/22 10:54:10;;;;;;;18.55;4.07;;;6.90;99.90;;;;;;5062521;28;20070;-90
2021/01/22 10:56:36;;;;;;;21.58;4.03;;;7.00;99.90;;;;;;5062003;28;20013;-89
2021/01/22 10:59:05;;;;;;;25.80;4.65;;;6.90;99.90;;;;;;5045530;28;20081;-89
2021/01/22 11:01:30;;;;;;;16.70;4.07;;;7.00;99.90;;;;;;5026342;28;20029;-88
2021/01/22 11:04:02;;;;;;;19.42;3.92;;;7.00;99.90;;;;;;5011651;28;20040;-89
2021/01/22 11:06:30;;;;;;;26.55;4.55;;;7.10;99.90;;;;;;5026766;28;20086;-90
2021/01/22 11:08:56;;;;;;;13.50;4.07;;;7.10;99.90;;;;;;5043461;28;20074;-89
2021/01/22 11:11:24;;;;;;;19.33;4.85;;;7.10;99.90;;;;;;5028353;28;20128;-90
2021/01/22 11:13:50;;;;;;;25.75;4.68;;;7.10;99.90;;;;;;5042204;28;20037;-87
2021/01/22 11:16:16;;;;;;;13.38;3.45;;;7.20;99.90;;;;;;5043204;28;20171;-88
2021/01/22 11:18:44;;;;;;;21.38;4.93;;;7.20;99.90;;;;;;5009717;28;20467;-88
2021/01/22 11:21:11;;;;;;;21.25;4.75;;;7.30;99.90;;;;;;5022909;28;20029;-86
2021/01/22 11:23:37;;;;;;;20.52;4.47;;;7.20;99.90;;;;;;5021081;28;20545;-88
2021/01/22 11:26:03;;;;;;;26.92;5.05;;;7.20;99.90;;;;;;5021711;28;20037;-87
2021/01/22 11:28:28;;;;;;;17.00;3.85;;;7.20;99.90;;;;;;5005513;28;20506;-88
2021/01/22 11:30:54;;;;;;;13.20;3.85;;;7.30;99.90;;;;;;5037830;28;20489;-87
2021/01/22 11:33:20;;;;;;;18.52;4.75;;;7.30;99.90;;;;;;5020184;28;20498;-86
2021/01/22 11:35:48;;;;;;;20.67;4.50;;;7.40;99.90;;;;;;5036757;28;20033;-88
2021/01/22 11:38:14;;;;;;;15.20;3.70;;;7.40;99.90;;;;;;5024223;28;20053;-87
2021/01/22 11:40:39;;;;;;;19.45;4.03;;;7.30;99.90;;;;;;5038825;28;20056;-89
2021/01/22 11:43:06;;;;;;;18.13;4.40;;;7.30;99.90;;;;;;5022758;28;20041;-90
2021/01/22 11:45:31;;;;;;;12.73;3.88;;;7.30;99.90;;;;;;5038211;28;20044;-89
2021/01/22 11:47:58;;;;;;;16.08;3.75;;;7.30;99.90;;;;;;5021624;28;20037;-89
2021/01/22 11:50:24;;;;;;;19.58;4.28;;;7.20;99.90;;;;;;5027235;28;20029;-91
2021/01/22 11:52:49;;;;;;;18.15;4.28;;;7.20;99.90;;;;;;5048646;28;20036;-88
2021/01/22 11:55:15;;;;;;;25.90;4.50;;;7.10;99.90;;;;;;5023496;28;20040;-87
2021/01/22 11:57:42;;;;;;;10.85;3.35;;;7.20;99.90;;;;;;5021271;28;20449;-89
2021/01/22 12:00:09;;;;;;;15.73;3.25;;;7.30;99.90;;;;;;5021614;28;20142;-88
2021/01/22 12:02:37;;;;;;;22.73;5.05;;;7.20;99.90;;;;;;5004503;28;20029;-88
2021/01/22 12:05:03;;;;;;;15.40;3.83;;;7.40;99.90;;;;;;5037683;28;20041;-88
2021/01/22 12:07:29;;;;;;;15.75;3.72;;;7.40;99.90;;;;;;5020673;28;20444;-87
2021/01/22 12:09:55;;;;;;;23.40;5.03;;;7.30;99.90;;;;;;5020732;28;20479;-87
2021/01/22 12:12:20;;;;;;;13.52;3.03;;;7.30;99.90;;;;;;5038794;28;20025;-88
2021/01/22 12:14:48;;;;;;;25.88;4.15;;;7.30;99.90;;;;;;5037716;28;20041;-88
2021/01/22 12:17:13;;;;;;;14.73;3.78;;;7.30;99.90;;;;;;5022340;28;20116;-88
2021/01/22 12:19:39;;;;;;;17.30;4.68;;;7.30;99.90;;;;;;5020914;28;20496;-89
2021/01/22 12:22:04;;;;;;;19.73;3.40;;;7.30;99.90;;;;;;5004179;28;20067;-91
2021/01/22 12:24:30;;;;;;;17.60;3.72;;;7.40;99.90;;;;;;5020582;28;20343;-90
2021/01/22 12:26:56;;;;;;;18.13;4.18;;;7.30;99.90;;;;;;5020540;28;20471;-89
2021/01/22 12:29:24;;;;;;;17.10;4.57;;;7.30;99.90;;;;;;5037720;28;20033;-90
2021/01/22 12:31:50;;;;;;;21.38;3.80;;;7.30;99.90;;;;;;5006338;28;20025;-89
2021/01/22 12:34:16;;;;;;;12.95;3.53;;;7.30;99.90;;;;;;5020622;28;20036;-89
2021/01/22 12:36:42;;;;;;;17.60;4.15;;;7.30;99.90;;;;;;5023466;28;20069;-89
2021/01/22 12:39:08;;;;;;;17.60;3.80;;;7.30;99.90;;;;;;5057176;28;20055;-90
2021/01/22 12:41:34;;;;;;;14.93;3.72;;;7.30;99.90;;;;;;5056772;28;20028;-89
2021/01/22 12:44:00;;;;;;;26.08;3.92;;;7.20;99.90;;;;;;5056931;28;20052;-89
2021/01/22 12:46:26;;;;;;;14.85;3.10;;;7.30;99.90;;;;;;5039923;28;20458;-89
2021/01/22 12:48:51;;;;;;;21.73;3.30;;;7.30;99.90;;;;;;5056432;28;20446;-89
2021/01/22 12:51:17;;;;;;;20.95;4.85;;;7.30;99.90;;;;;;5075391;28;20392;-89
2021/01/22 12:53:43;;;;;;;19.67;4.40;;;7.30;99.90;;;;;;5076427;28;20028;-89